Time;durP1;ratioP1;P1;durP2;ratioP2;P2;SDS_P1;SDS_P2;PMS_P1;PMS_P2;Temp;Humidity;BMP_temperature;BMP_pressure;BME280_temperature;BME280_humidity;BME280_pressure;Samples;Min_cycle;Max_cycle;Signal;HPM_P1;HPM_P2
2022/05/08 00:01:35;;;;;;;0.20;0.20;;;;;;;;;;4179684;28;20052;-40
2022/05/08 00:03:36;;;;;;;0.20;0.10;;;;;;;;;;4179462;28;20060;-40
2022/05/08 00:05:39;;;;;;;0.10;0.10;;;;;;;;;;4179636;28;20079;-38
2022/05/08 00:07:40;;;;;;;0.20;0.20;;;;;;;;;;4179546;28;20412;-40
2022/05/08 00:09:41;;;;;;;0.20;0.20;;;;;;;;;;4179779;28;20049;-40
2022/05/08 00:11:41;;;;;;;0.20;0.17;;;;;;;;;;4179474;28;20091;-40
2022/05/08 00:13:43;;;;;;;1.25;0.30;;;;;;;;;;4179053;28;20094;-41
2022/05/08 00:15:44;;;;;;;0.32;0.10;;;;;;;;;;4179450;28;20052;-40
2022/05/08 00:17:45;;;;;;;0.88;0.32;;;;;;;;;;4178918;28;20057;-39
2022/05/08 00:19:49;;;;;;;0.20;0.20;;;;;;;;;;4179320;28;20056;-40
2022/05/08 00:21:50;;;;;;;0.20;0.20;;;;;;;;;;4179432;28;20053;-38
2022/05/08 00:23:51;;;;;;;0.40;0.20;;;;;;;;;;4179308;28;20094;-40
2022/05/08 00:25:52;;;;;;;0.25;0.10;;;;;;;;;;4179383;28;20091;-39
2022/05/08 00:27:53;;;;;;;0.52;0.38;;;;;;;;;;4179390;28;20110;-41
2022/05/08 00:29:54;;;;;;;0.17;0.15;;;;;;;;;;4178820;28;20095;-39
2022/05/08 00:31:55;;;;;;;0.10;0.10;;;;;;;;;;4179434;28;20544;-40
2022/05/08 00:33:56;;;;;;;0.28;0.20;;;;;;;;;;4179252;28;20045;-40
2022/05/08 00:35:57;;;;;;;0.52;0.10;;;;;;;;;;4179327;28;20110;-41
2022/05/08 00:37:58;;;;;;;0.30;0.10;;;;;;;;;;4179261;28;20144;-39
2022/05/08 00:39:59;;;;;;;0.10;0.10;;;;;;;;;;4179090;28;20096;-40
2022/05/08 00:42:00;;;;;;;0.35;0.20;;;;;;;;;;4179329;28;20098;-40
2022/05/08 00:44:02;;;;;;;0.32;0.20;;;;;;;;;;4178718;28;20059;-38
2022/05/08 00:46:04;;;;;;;0.28;0.20;;;;;;;;;;4179304;28;20102;-40
2022/05/08 00:48:05;;;;;;;0.40;0.20;;;;;;;;;;4179182;28;20064;-37
2022/05/08 00:50:06;;;;;;;0.10;0.10;;;;;;;;;;4178017;28;20416;-41
2022/05/08 00:52:08;;;;;;;0.15;0.10;;;;;;;;;;4179158;28;20378;-41
2022/05/08 00:54:10;;;;;;;0.10;0.10;;;;;;;;;;4178919;28;20818;-38
2022/05/08 00:56:12;;;;;;;0.35;0.20;;;;;;;;;;4179086;28;20562;-39
2022/05/08 00:58:16;;;;;;;0.30;0.30;;;;;;;;;;4179144;28;20389;-38
2022/05/08 01:00:17;;;;;;;0.20;0.17;;;;;;;;;;4178323;28;20072;-39
2022/05/08 01:02:18;;;;;;;0.38;0.10;;;;;;;;;;4179431;28;20060;-42
2022/05/08 01:04:19;;;;;;;0.43;0.13;;;;;;;;;;4178953;28;20068;-38
2022/05/08 01:06:20;;;;;;;0.20;0.20;;;;;;;;;;4177796;28;20041;-38
2022/05/08 01:08:22;;;;;;;0.22;0.10;;;;;;;;;;4179098;28;20049;-41
2022/05/08 01:10:23;;;;;;;0.20;0.20;;;;;;;;;;4179538;28;20045;-39
2022/05/08 01:12:24;;;;;;;0.80;0.20;;;;;;;;;;4179254;28;20595;-40
2022/05/08 01:14:26;;;;;;;0.10;0.10;;;;;;;;;;4178482;28;20092;-39
2022/05/08 01:16:28;;;;;;;0.17;0.17;;;;;;;;;;4179037;28;20095;-39
2022/05/08 01:18:29;;;;;;;0.20;0.20;;;;;;;;;;4178923;28;20513;-40
2022/05/08 01:20:30;;;;;;;0.20;0.10;;;;;;;;;;4179057;28;20060;-39
2022/05/08 01:22:31;;;;;;;0.25;0.20;;;;;;;;;;4178978;28;20447;-39
2022/05/08 01:24:32;;;;;;;0.10;0.10;;;;;;;;;;4182934;28;20098;-41
2022/05/08 01:26:33;;;;;;;0.50;0.20;;;;;;;;;;4178810;28;20060;-36
2022/05/08 01:28:34;;;;;;;0.45;0.20;;;;;;;;;;4178551;28;20056;-40
2022/05/08 01:30:35;;;;;;;0.20;0.17;;;;;;;;;;4181753;28;20087;-42
2022/05/08 01:32:36;;;;;;;0.30;0.17;;;;;;;;;;4187182;28;20091;-40
2022/05/08 01:34:37;;;;;;;0.20;0.20;;;;;;;;;;4197145;28;20075;-38
2022/05/08 01:36:40;;;;;;;0.50;0.20;;;;;;;;;;4198486;28;20443;-39
2022/05/08 01:38:41;;;;;;;0.50;0.25;;;;;;;;;;4198304;28;20060;-40
2022/05/08 01:40:45;;;;;;;0.20;0.10;;;;;;;;;;4197380;28;20416;-40
2022/05/08 01:42:46;;;;;;;0.57;0.30;;;;;;;;;;4198376;28;20385;-40
2022/05/08 01:44:47;;;;;;;0.60;0.10;;;;;;;;;;4196616;28;20079;-40
2022/05/08 01:46:48;;;;;;;0.13;0.10;;;;;;;;;;4198317;28;20496;-38
2022/05/08 01:48:49;;;;;;;0.28;0.10;;;;;;;;;;4198336;28;20049;-39
2022/05/08 01:50:50;;;;;;;0.40;0.30;;;;;;;;;;4195074;28;20474;-39
2022/05/08 01:52:51;;;;;;;0.35;0.20;;;;;;;;;;4188988;28;20044;-39
2022/05/08 01:54:53;;;;;;;0.43;0.20;;;;;;;;;;4198057;28;20127;-40
2022/05/08 01:56:54;;;;;;;0.45;0.22;;;;;;;;;;4198426;28;20049;-41
2022/05/08 01:58:54;;;;;;;0.28;0.20;;;;;;;;;;4197844;28;20222;-38
2022/05/08 02:00:56;;;;;;;0.38;0.10;;;;;;;;;;4198013;28;20083;-39
2022/05/08 02:02:59;;;;;;;0.30;0.10;;;;;;;;;;4196823;28;20474;-38
2022/05/08 02:05:01;;;;;;;0.40;0.20;;;;;;;;;;4197849;28;20049;-37
2022/05/08 02:07:02;;;;;;;0.20;0.20;;;;;;;;;;4198027;28;20045;-39
2022/05/08 02:09:03;;;;;;;0.30;0.25;;;;;;;;;;4197992;28;20074;-39
2022/05/08 02:11:06;;;;;;;0.98;0.10;;;;;;;;;;4198081;28;20395;-40
2022/05/08 02:13:08;;;;;;;0.20;0.10;;;;;;;;;;4197926;28;20045;-39
2022/05/08 02:15:10;;;;;;;0.20;0.20;;;;;;;;;;4197594;28;20553;-37
2022/05/08 02:17:11;;;;;;;0.25;0.17;;;;;;;;;;4198239;28;20049;-38
2022/05/08 02:19:12;;;;;;;0.20;0.10;;;;;;;;;;4197694;28;20052;-40
2022/05/08 02:21:13;;;;;;;0.25;0.20;;;;;;;;;;4196437;28;20084;-41
2022/05/08 02:23:14;;;;;;;0.13;0.13;;;;;;;;;;4197933;28;20098;-39
2022/05/08 02:25:15;;;;;;;0.10;0.10;;;;;;;;;;4183643;28;20469;-39
2022/05/08 02:27:17;;;;;;;0.03;0.00;;;;;;;;;;4181069;28;20154;-39
2022/05/08 02:29:18;;;;;;;0.20;0.20;;;;;;;;;;4180591;28;20552;-41
2022/05/08 02:31:19;;;;;;;0.30;0.10;;;;;;;;;;4179748;28;20045;-41
2022/05/08 02:33:21;;;;;;;0.47;0.10;;;;;;;;;;4181037;28;20096;-39
2022/05/08 02:35:22;;;;;;;0.60;0.20;;;;;;;;;;4180899;28;20107;-40
2022/05/08 02:37:23;;;;;;;0.38;0.20;;;;;;;;;;4181130;28;20431;-39
2022/05/08 02:39:25;;;;;;;0.38;0.10;;;;;;;;;;4180765;28;20049;-39
2022/05/08 02:41:25;;;;;;;0.20;0.10;;;;;;;;;;4180095;28;20057;-40
2022/05/08 02:43:28;;;;;;;0.65;0.20;;;;;;;;;;4181085;28;20045;-41
2022/05/08 02:45:29;;;;;;;0.10;0.10;;;;;;;;;;4180686;28;20083;-40
2022/05/08 02:47:31;;;;;;;0.10;0.10;;;;;;;;;;4180740;28;20443;-39
2022/05/08 02:49:32;;;;;;;0.20;0.10;;;;;;;;;;4180949;28;20049;-41
2022/05/08 02:51:33;;;;;;;0.10;0.10;;;;;;;;;;4165141;28;20045;-40
2022/05/08 02:53:34;;;;;;;0.38;0.15;;;;;;;;;;4162054;28;20377;-38
2022/05/08 03:00:14;;;;;;;;;;;;;;;;;;4183621;28;20114;-40
2022/05/08 03:02:16;;;;;;;0.20;0.17;;;;;;;;;;4178325;28;19921;-39
2022/05/08 03:04:18;;;;;;;0.25;0.20;;;;;;;;;;4178442;28;20052;-41
2022/05/08 03:06:18;;;;;;;0.10;0.10;;;;;;;;;;4178624;28;20056;-38
2022/05/08 03:08:19;;;;;;;0.17;0.17;;;;;;;;;;4178510;28;20373;-39
2022/05/08 03:10:20;;;;;;;0.10;0.10;;;;;;;;;;4178516;28;20051;-39
2022/05/08 03:12:21;;;;;;;0.43;0.20;;;;;;;;;;4178734;28;20099;-37
2022/05/08 03:14:23;;;;;;;0.10;0.10;;;;;;;;;;4176057;28;20145;-40
2022/05/08 03:16:27;;;;;;;0.30;0.20;;;;;;;;;;4183531;28;20053;-38
2022/05/08 03:18:28;;;;;;;0.30;0.13;;;;;;;;;;4193985;28;20177;-40
2022/05/08 03:20:29;;;;;;;0.00;0.00;;;;;;;;;;4191437;28;20409;-38
2022/05/08 03:22:30;;;;;;;0.40;0.17;;;;;;;;;;4185698;28;20071;-38
2022/05/08 03:24:31;;;;;;;0.10;0.10;;;;;;;;;;4194739;28;20084;-41
2022/05/08 03:26:32;;;;;;;0.00;0.00;;;;;;;;;;4179296;28;20087;-41
2022/05/08 03:28:34;;;;;;;1.30;0.20;;;;;;;;;;4177760;28;20053;-40
2022/05/08 03:30:35;;;;;;;0.45;0.20;;;;;;;;;;4184216;28;20049;-41
2022/05/08 03:32:38;;;;;;;0.10;0.10;;;;;;;;;;4184637;28;20517;-39
2022/05/08 03:34:39;;;;;;;1.13;0.20;;;;;;;;;;4178059;28;20049;-40
2022/05/08 03:36:40;;;;;;;0.30;0.20;;;;;;;;;;4178051;28;20103;-40
2022/05/08 03:38:43;;;;;;;0.10;0.10;;;;;;;;;;4177787;28;20110;-40
2022/05/08 03:40:44;;;;;;;0.10;0.10;;;;;;;;;;4177939;28;20733;-40
2022/05/08 03:42:44;;;;;;;0.10;0.10;;;;;;;;;;4178002;28;20078;-38
2022/05/08 03:44:46;;;;;;;0.10;0.10;;;;;;;;;;4187701;28;20060;-38
2022/05/08 03:46:47;;;;;;;0.20;0.20;;;;;;;;;;4188561;28;20376;-39
2022/05/08 03:48:48;;;;;;;0.28;0.17;;;;;;;;;;4195990;28;20090;-40
2022/05/08 03:50:49;;;;;;;0.15;0.15;;;;;;;;;;4196308;28;20052;-38
2022/05/08 03:52:50;;;;;;;0.10;0.10;;;;;;;;;;4196120;28;20537;-40
2022/05/08 03:54:51;;;;;;;0.20;0.20;;;;;;;;;;4196042;28;20131;-38
2022/05/08 03:56:52;;;;;;;0.20;0.20;;;;;;;;;;4196510;28;20049;-39
2022/05/08 03:58:53;;;;;;;0.32;0.10;;;;;;;;;;4178850;28;20061;-41
2022/05/08 04:00:54;;;;;;;0.10;0.10;;;;;;;;;;4161056;28;20108;-39
2022/05/08 04:02:55;;;;;;;0.10;0.10;;;;;;;;;;4160944;28;20570;-39
2022/05/08 04:05:00;;;;;;;0.20;0.20;;;;;;;;;;4160974;28;20556;-40
2022/05/08 04:07:01;;;;;;;0.38;0.38;;;;;;;;;;4174478;28;20110;-41
2022/05/08 04:09:02;;;;;;;0.30;0.20;;;;;;;;;;4177092;28;20439;-38
2022/05/08 04:11:03;;;;;;;0.30;0.10;;;;;;;;;;4188045;28;20052;-39
2022/05/08 04:13:04;;;;;;;0.10;0.10;;;;;;;;;;4177970;28;20049;-37
2022/05/08 04:16:15;;;;;;;0.30;0.15;;;;;;;;;;4192923;28;20181;-40
2022/05/08 04:17:28;;;;;;;0.30;0.10;;;;;;;;;;4195946;28;20102;-39
2022/05/08 04:19:29;;;;;;;0.10;0.10;;;;;;;;;;4195852;28;20049;-35
2022/05/08 04:21:31;;;;;;;0.32;0.10;;;;;;;;;;4192346;28;20053;-41
2022/05/08 04:25:52;;;;;;;0.22;0.20;;;;;;;;;;4163018;28;20049;-40
2022/05/08 04:27:53;;;;;;;0.30;0.10;;;;;;;;;;4162642;28;20053;-39
2022/05/08 04:29:54;;;;;;;0.10;0.10;;;;;;;;;;4162277;28;20056;-40
2022/05/08 04:31:54;;;;;;;0.10;0.10;;;;;;;;;;4162634;28;20045;-37
2022/05/08 04:33:55;;;;;;;0.13;0.10;;;;;;;;;;4162561;28;20116;-41
2022/05/08 04:35:56;;;;;;;0.17;0.10;;;;;;;;;;4162934;28;20045;-41
2022/05/08 04:37:58;;;;;;;0.13;0.10;;;;;;;;;;4162782;28;20049;-38
2022/05/08 04:39:59;;;;;;;0.17;0.17;;;;;;;;;;4162676;28;20451;-38
2022/05/08 04:42:01;;;;;;;0.10;0.10;;;;;;;;;;4162922;28;20081;-38
2022/05/08 04:44:03;;;;;;;0.30;0.10;;;;;;;;;;4162208;28;20570;-41
2022/05/08 04:46:04;;;;;;;0.28;0.10;;;;;;;;;;4162618;28;20054;-40
2022/05/08 04:48:05;;;;;;;0.10;0.10;;;;;;;;;;4162837;28;20049;-38
2022/05/08 04:50:06;;;;;;;0.20;0.10;;;;;;;;;;4162813;28;20053;-39
2022/05/08 04:52:07;;;;;;;0.10;0.10;;;;;;;;;;4177992;28;20155;-37
2022/05/08 04:54:08;;;;;;;0.10;0.10;;;;;;;;;;4162501;28;20350;-39
2022/05/08 04:56:09;;;;;;;0.10;0.10;;;;;;;;;;4162754;28;20175;-40
2022/05/08 04:58:10;;;;;;;0.60;0.15;;;;;;;;;;4162511;28;20551;-39
2022/05/08 05:00:12;;;;;;;0.10;0.10;;;;;;;;;;4173147;28;20056;-38
2022/05/08 05:02:14;;;;;;;0.10;0.10;;;;;;;;;;4179184;28;20447;-39
2022/05/08 05:04:15;;;;;;;0.20;0.20;;;;;;;;;;4180346;28;20045;-39
2022/05/08 05:06:17;;;;;;;0.50;0.10;;;;;;;;;;4182289;28;20079;-41
2022/05/08 05:08:21;;;;;;;0.10;0.10;;;;;;;;;;4182466;28;20041;-39
2022/05/08 05:10:22;;;;;;;0.03;0.03;;;;;;;;;;4182465;28;20048;-37
2022/05/08 05:12:23;;;;;;;0.30;0.10;;;;;;;;;;4182633;28;20095;-37
2022/05/08 05:14:24;;;;;;;0.20;0.20;;;;;;;;;;4181855;28;20075;-38
2022/05/08 05:16:25;;;;;;;0.00;0.00;;;;;;;;;;4182381;28;20457;-39
2022/05/08 05:18:26;;;;;;;0.28;0.10;;;;;;;;;;4182094;28;20064;-38
2022/05/08 05:20:28;;;;;;;0.10;0.10;;;;;;;;;;4182286;28;20401;-40
2022/05/08 05:22:29;;;;;;;0.57;0.10;;;;;;;;;;4182463;28;20052;-40
2022/05/08 05:24:30;;;;;;;0.22;0.10;;;;;;;;;;4182162;28;20487;-39
2022/05/08 05:26:31;;;;;;;0.20;0.20;;;;;;;;;;4182388;28;20049;-40
2022/05/08 05:28:32;;;;;;;0.10;0.10;;;;;;;;;;4196869;28;20049;-39
2022/05/08 05:30:33;;;;;;;0.10;0.10;;;;;;;;;;4181769;28;20535;-40
2022/05/08 05:32:34;;;;;;;0.30;0.10;;;;;;;;;;4181944;28;20084;-40
2022/05/08 05:34:35;;;;;;;0.03;0.03;;;;;;;;;;4181896;28;20118;-41
2022/05/08 05:36:36;;;;;;;0.32;0.05;;;;;;;;;;4181948;28;20141;-39
2022/05/08 05:38:37;;;;;;;0.15;0.10;;;;;;;;;;4182022;28;20057;-39
2022/05/08 05:40:38;;;;;;;0.30;0.20;;;;;;;;;;4181806;28;20106;-39
2022/05/08 05:42:39;;;;;;;0.25;0.17;;;;;;;;;;4181724;28;20098;-39
2022/05/08 05:44:40;;;;;;;0.47;0.10;;;;;;;;;;4181328;28;20451;-40
2022/05/08 05:49:00;;;;;;;0.10;0.10;;;;;;;;;;4181452;28;20091;-38
2022/05/08 05:51:01;;;;;;;0.10;0.10;;;;;;;;;;4181780;28;20087;-41
2022/05/08 05:53:02;;;;;;;0.38;0.20;;;;;;;;;;4181635;28;20092;-36
2022/05/08 05:55:06;;;;;;;0.30;0.20;;;;;;;;;;4181426;28;20094;-41
2022/05/08 05:57:07;;;;;;;0.10;0.10;;;;;;;;;;4181669;28;20092;-38
2022/05/08 05:59:08;;;;;;;0.20;0.10;;;;;;;;;;4181042;28;20085;-36
2022/05/08 06:01:09;;;;;;;0.10;0.10;;;;;;;;;;4181400;28;20091;-38
2022/05/08 06:03:10;;;;;;;0.10;0.10;;;;;;;;;;4181497;28;20106;-39
2022/05/08 06:05:11;;;;;;;0.03;0.03;;;;;;;;;;4181364;28;20125;-41
2022/05/08 06:07:13;;;;;;;0.22;0.13;;;;;;;;;;4196550;28;20040;-39
2022/05/08 06:09:15;;;;;;;0.00;0.00;;;;;;;;;;4181351;28;20419;-41
2022/05/08 06:11:16;;;;;;;0.20;0.10;;;;;;;;;;4181672;28;20048;-41
2022/05/08 06:13:17;;;;;;;0.20;0.10;;;;;;;;;;4181628;28;20091;-38
2022/05/08 06:15:18;;;;;;;0.28;0.10;;;;;;;;;;4178542;28;20461;-38
2022/05/08 06:17:19;;;;;;;0.75;0.20;;;;;;;;;;4181209;28;20186;-42
2022/05/08 06:19:19;;;;;;;0.50;0.10;;;;;;;;;;4181243;28;20101;-38
2022/05/08 06:21:20;;;;;;;0.00;0.00;;;;;;;;;;4181555;28;20527;-39
2022/05/08 06:23:21;;;;;;;0.10;0.10;;;;;;;;;;4181443;28;20076;-40
2022/05/08 06:25:23;;;;;;;0.05;0.05;;;;;;;;;;4181301;28;20048;-40
2022/05/08 06:27:25;;;;;;;0.00;0.00;;;;;;;;;;4181030;28;20041;-40
2022/05/08 06:29:25;;;;;;;0.10;0.10;;;;;;;;;;4180635;28;20606;-38
2022/05/08 06:31:27;;;;;;;0.10;0.10;;;;;;;;;;4181076;28;20095;-38
2022/05/08 06:33:28;;;;;;;0.03;0.03;;;;;;;;;;4180978;28;20425;-41
2022/05/08 06:35:31;;;;;;;0.10;0.10;;;;;;;;;;4181043;28;20507;-40
2022/05/08 06:37:32;;;;;;;0.10;0.10;;;;;;;;;;4180964;28;20099;-39
2022/05/08 06:39:34;;;;;;;0.13;0.10;;;;;;;;;;4180944;28;20053;-39
2022/05/08 06:41:36;;;;;;;0.60;0.00;;;;;;;;;;4180856;28;20508;-41
2022/05/08 06:43:40;;;;;;;0.17;0.17;;;;;;;;;;4180307;28;20045;-40
2022/05/08 06:45:42;;;;;;;0.10;0.05;;;;;;;;;;4181085;28;20048;-39
2022/05/08 06:47:43;;;;;;;0.20;0.10;;;;;;;;;;4180750;28;20429;-38
2022/05/08 06:49:48;;;;;;;0.00;0.00;;;;;;;;;;4180828;28;20052;-38
2022/05/08 06:51:49;;;;;;;0.00;0.00;;;;;;;;;;4180719;28;20401;-41
2022/05/08 06:53:50;;;;;;;0.00;0.00;;;;;;;;;;4212590;28;20040;-41
2022/05/08 06:55:51;;;;;;;0.08;0.08;;;;;;;;;;4180798;28;20041;-38
2022/05/08 06:57:52;;;;;;;0.10;0.10;;;;;;;;;;4162659;28;20091;-40
2022/05/08 07:02:13;;;;;;;0.00;0.00;;;;;;;;;;4180614;28;20056;-40
2022/05/08 07:04:15;;;;;;;0.20;0.10;;;;;;;;;;4180440;28;20056;-41
2022/05/08 07:06:16;;;;;;;0.10;0.10;;;;;;;;;;4180558;28;20052;-40
2022/05/08 07:08:17;;;;;;;0.30;0.30;;;;;;;;;;4180401;28;20045;-39
2022/05/08 07:10:18;;;;;;;0.10;0.08;;;;;;;;;;4180322;28;20053;-37
2022/05/08 07:12:19;;;;;;;0.10;0.10;;;;;;;;;;4180617;28;20543;-41
2022/05/08 07:14:20;;;;;;;0.10;0.10;;;;;;;;;;4179884;28;20136;-39
2022/05/08 07:16:21;;;;;;;0.10;0.10;;;;;;;;;;4180602;28;20040;-37
2022/05/08 07:18:22;;;;;;;0.10;0.05;;;;;;;;;;4180314;28;20048;-41
2022/05/08 07:20:23;;;;;;;0.10;0.10;;;;;;;;;;4180231;28;20532;-42
2022/05/08 07:22:26;;;;;;;0.20;0.10;;;;;;;;;;4180189;28;20107;-40
2022/05/08 07:24:26;;;;;;;0.10;0.10;;;;;;;;;;4180331;28;20052;-40
2022/05/08 07:26:27;;;;;;;0.10;0.10;;;;;;;;;;4179710;28;20139;-39
2022/05/08 07:28:29;;;;;;;0.38;0.20;;;;;;;;;;4179905;28;20099;-41
2022/05/08 07:30:30;;;;;;;0.00;0.00;;;;;;;;;;4179910;28;20060;-38
2022/05/08 07:32:32;;;;;;;0.10;0.10;;;;;;;;;;4180102;28;20049;-38
2022/05/08 07:36:54;;;;;;;0.20;0.00;;;;;;;;;;4180215;28;20053;-36
2022/05/08 07:38:55;;;;;;;0.10;0.00;;;;;;;;;;4179935;28;20114;-38
2022/05/08 07:40:56;;;;;;;0.10;0.10;;;;;;;;;;4179900;28;20088;-41
2022/05/08 07:42:57;;;;;;;0.20;0.15;;;;;;;;;;4180218;28;20095;-41
2022/05/08 07:44:58;;;;;;;0.25;0.10;;;;;;;;;;4179248;28;20044;-40
2022/05/08 07:47:00;;;;;;;0.10;0.05;;;;;;;;;;4179958;28;20052;-40
2022/05/08 07:49:01;;;;;;;0.00;0.00;;;;;;;;;;4179793;28;20155;-40
2022/05/08 07:51:02;;;;;;;0.10;0.10;;;;;;;;;;4180020;28;20056;-39
2022/05/08 07:53:03;;;;;;;0.13;0.10;;;;;;;;;;4178514;28;20048;-41
2022/05/08 07:55:05;;;;;;;0.00;0.00;;;;;;;;;;4179399;28;20135;-39
2022/05/08 07:57:06;;;;;;;0.15;0.00;;;;;;;;;;4179843;28;20063;-40
2022/05/08 07:59:08;;;;;;;0.30;0.10;;;;;;;;;;4179128;28;20049;-38
2022/05/08 08:01:12;;;;;;;0.13;0.13;;;;;;;;;;4179495;28;20057;-39
2022/05/08 08:03:13;;;;;;;0.00;0.00;;;;;;;;;;4179648;28;20543;-38
2022/05/08 08:05:14;;;;;;;0.10;0.08;;;;;;;;;;4179637;28;20061;-37
2022/05/08 08:07:16;;;;;;;0.00;0.00;;;;;;;;;;4179637;28;20052;-39
2022/05/08 08:09:17;;;;;;;0.10;0.10;;;;;;;;;;4179625;28;20049;-38
2022/05/08 08:11:18;;;;;;;0.15;0.13;;;;;;;;;;4179537;28;20459;-40
2022/05/08 08:13:20;;;;;;;0.10;0.10;;;;;;;;;;4179796;28;20037;-39
2022/05/08 08:15:20;;;;;;;0.10;0.10;;;;;;;;;;4179119;28;20558;-40
2022/05/08 08:17:22;;;;;;;0.32;0.10;;;;;;;;;;4179392;28;20078;-38
2022/05/08 08:19:23;;;;;;;0.10;0.10;;;;;;;;;;4177974;28;20051;-40
2022/05/08 08:21:24;;;;;;;0.15;0.10;;;;;;;;;;4179827;28;20061;-38
2022/05/08 08:23:27;;;;;;;0.03;0.03;;;;;;;;;;4179585;28;20088;-40
2022/05/08 08:25:29;;;;;;;0.10;0.10;;;;;;;;;;4179475;28;20041;-38
2022/05/08 08:27:30;;;;;;;0.10;0.10;;;;;;;;;;4177920;28;20049;-37
2022/05/08 08:29:31;;;;;;;0.13;0.05;;;;;;;;;;4177702;28;20094;-39
2022/05/08 08:31:32;;;;;;;0.15;0.10;;;;;;;;;;4179419;28;20396;-38
2022/05/08 08:33:32;;;;;;;0.17;0.10;;;;;;;;;;4179030;28;20094;-41
2022/05/08 08:35:33;;;;;;;0.30;0.25;;;;;;;;;;4179436;28;20056;-41
2022/05/08 08:37:34;;;;;;;0.32;0.10;;;;;;;;;;4179193;28;20049;-40
2022/05/08 08:39:35;;;;;;;0.40;0.05;;;;;;;;;;4178272;28;20179;-38
2022/05/08 08:41:42;;;;;;;0.10;0.10;;;;;;;;;;4178080;28;20048;-40
2022/05/08 08:48:30;;;;;;;0.43;0.10;;;;;;;;;;4179150;28;20725;-38
2022/05/08 08:50:32;;;;;;;0.20;0.10;;;;;;;;;;4179321;28;20065;-39
2022/05/08 08:52:34;;;;;;;0.10;0.10;;;;;;;;;;4177690;28;20053;-39
2022/05/08 08:54:35;;;;;;;0.15;0.05;;;;;;;;;;4179351;28;20045;-40
2022/05/08 08:56:36;;;;;;;0.20;0.20;;;;;;;;;;4179086;28;20052;-38
2022/05/08 08:58:37;;;;;;;0.08;0.08;;;;;;;;;;4178707;28;20480;-36
2022/05/08 09:00:38;;;;;;;0.17;0.13;;;;;;;;;;4178865;28;20106;-41
2022/05/08 09:02:40;;;;;;;0.20;0.10;;;;;;;;;;4179167;28;20085;-40
2022/05/08 09:04:41;;;;;;;0.10;0.00;;;;;;;;;;4178934;28;20056;-36
2022/05/08 09:06:42;;;;;;;0.10;0.00;;;;;;;;;;4177952;28;20086;-40
2022/05/08 09:08:43;;;;;;;0.30;0.10;;;;;;;;;;4179137;28;20107;-40
2022/05/08 09:10:44;;;;;;;0.15;0.10;;;;;;;;;;4177971;28;20428;-36
2022/05/08 09:13:05;;;;;;;0.00;0.00;;;;;;;;;;4179293;28;20095;-41
2022/05/08 09:15:16;;;;;;;0.22;0.10;;;;;;;;;;4178717;28;20056;-40
2022/05/08 09:17:17;;;;;;;0.10;0.00;;;;;;;;;;4179011;28;20106;-39
2022/05/08 09:19:29;;;;;;;0.10;0.10;;;;;;;;;;4178832;28;20516;-38
2022/05/08 09:23:49;;;;;;;;;;;;;;;;;;4179642;28;20057;-39
2022/05/08 09:25:59;;;;;;;0.00;0.00;;;;;;;;;;4178897;28;20077;-38
2022/05/08 09:28:00;;;;;;;0.10;0.10;;;;;;;;;;4178969;28;20052;-41
2022/05/08 09:30:07;;;;;;;0.22;0.00;;;;;;;;;;4178456;28;20095;-37
2022/05/08 09:32:08;;;;;;;0.10;0.10;;;;;;;;;;4178848;28;20382;-39
2022/05/08 09:34:09;;;;;;;0.10;0.10;;;;;;;;;;4178665;28;20088;-40
2022/05/08 09:36:10;;;;;;;0.13;0.10;;;;;;;;;;4178882;28;20087;-38
2022/05/08 09:38:11;;;;;;;0.13;0.10;;;;;;;;;;4179050;28;20132;-39
2022/05/08 09:40:15;;;;;;;0.17;0.10;;;;;;;;;;4179028;28;20052;-36
2022/05/08 09:42:37;;;;;;;0.00;0.00;;;;;;;;;;4178783;28;20052;-38
2022/05/08 09:44:58;;;;;;;0.00;0.00;;;;;;;;;;4178242;28;20049;-40
2022/05/08 09:47:00;;;;;;;0.10;0.10;;;;;;;;;;4178700;28;20049;-39
2022/05/08 09:49:02;;;;;;;0.20;0.10;;;;;;;;;;4178480;28;20045;-39
2022/05/08 09:51:07;;;;;;;0.10;0.10;;;;;;;;;;4180825;28;20090;-40
2022/05/08 09:53:08;;;;;;;0.00;0.00;;;;;;;;;;4181706;28;20045;-35
2022/05/08 09:55:12;;;;;;;0.10;0.00;;;;;;;;;;4181739;28;20106;-41
2022/05/08 09:57:13;;;;;;;0.10;0.10;;;;;;;;;;4181754;28;20448;-38
2022/05/08 09:59:15;;;;;;;0.20;0.10;;;;;;;;;;4181162;28;20045;-38
2022/05/08 10:01:16;;;;;;;0.08;0.03;;;;;;;;;;4181378;28;20288;-39
2022/05/08 10:03:21;;;;;;;0.00;0.00;;;;;;;;;;4181601;28;20053;-39
2022/05/08 10:05:22;;;;;;;0.03;0.03;;;;;;;;;;4181428;28;20060;-41
2022/05/08 10:07:23;;;;;;;0.30;0.10;;;;;;;;;;4181688;28;20106;-42
2022/05/08 10:14:04;;;;;;;0.00;0.00;;;;;;;;;;4181142;28;20091;-41
2022/05/08 10:16:05;;;;;;;0.10;0.10;;;;;;;;;;4181239;28;20055;-41
2022/05/08 10:18:25;;;;;;;0.20;0.10;;;;;;;;;;4181557;28;20136;-41
2022/05/08 10:20:26;;;;;;;;;;;;;;;;;;4181972;28;20049;-42
2022/05/08 10:22:45;;;;;;;0.00;0.00;;;;;;;;;;4181604;28;19962;-40
2022/05/08 10:24:47;;;;;;;0.10;0.10;;;;;;;;;;4181121;28;20457;-40
2022/05/08 10:27:07;;;;;;;0.10;0.10;;;;;;;;;;4181459;28;20049;-39
2022/05/08 10:29:08;;;;;;;0.17;0.10;;;;;;;;;;4180500;28;20045;-40
2022/05/08 10:31:30;;;;;;;0.10;0.10;;;;;;;;;;4181142;28;20484;-41
2022/05/08 10:33:50;;;;;;;0.20;0.05;;;;;;;;;;4180985;28;20041;-41
2022/05/08 10:36:06;;;;;;;0.25;0.17;;;;;;;;;;4180901;28;20049;-40
2022/05/08 10:38:07;;;;;;;0.10;0.10;;;;;;;;;;4181052;28;20447;-40
2022/05/08 10:40:23;;;;;;;0.20;0.17;;;;;;;;;;4180830;28;20095;-39
2022/05/08 10:42:24;;;;;;;1.00;0.10;;;;;;;;;;4181017;28;20489;-40
2022/05/08 10:44:35;;;;;;;0.08;0.00;;;;;;;;;;4180547;28;20118;-40
2022/05/08 10:46:37;;;;;;;0.17;0.10;;;;;;;;;;4180931;28;20049;-38
2022/05/08 10:48:38;;;;;;;0.38;0.00;;;;;;;;;;4180610;28;20045;-40
2022/05/08 10:51:02;;;;;;;0.22;0.08;;;;;;;;;;4181047;28;20106;-41
2022/05/08 10:53:03;;;;;;;0.30;0.10;;;;;;;;;;4180803;28;20053;-41
2022/05/08 10:55:08;;;;;;;0.30;0.30;;;;;;;;;;4180496;28;20056;-40
2022/05/08 10:57:09;;;;;;;0.65;0.10;;;;;;;;;;4180736;28;20045;-41
2022/05/08 10:59:10;;;;;;;0.15;0.10;;;;;;;;;;4180353;28;20063;-41
2022/05/08 11:01:11;;;;;;;0.30;0.10;;;;;;;;;;4180201;28;20194;-42
2022/05/08 11:03:19;;;;;;;0.57;0.10;;;;;;;;;;4180168;28;20052;-41
2022/05/08 11:05:26;;;;;;;0.25;0.10;;;;;;;;;;4180826;28;20068;-41
2022/05/08 11:07:27;;;;;;;0.00;0.00;;;;;;;;;;4180511;28;20057;-37
2022/05/08 11:09:29;;;;;;;0.22;0.10;;;;;;;;;;4195587;28;20053;-40
2022/05/08 11:11:30;;;;;;;0.10;0.10;;;;;;;;;;4180723;28;20087;-40
2022/05/08 11:13:37;;;;;;;0.38;0.10;;;;;;;;;;4178929;28;20570;-39
2022/05/08 11:15:48;;;;;;;0.10;0.10;;;;;;;;;;4180480;28;20048;-40
2022/05/08 11:18:02;;;;;;;0.82;0.10;;;;;;;;;;4180610;28;20107;-42
2022/05/08 11:20:03;;;;;;;0.00;0.00;;;;;;;;;;4180334;28;20048;-40
2022/05/08 11:22:04;;;;;;;0.13;0.10;;;;;;;;;;4180474;28;20091;-40
2022/05/08 11:24:06;;;;;;;0.13;0.10;;;;;;;;;;4180266;28;20546;-40
2022/05/08 11:26:09;;;;;;;0.82;0.20;;;;;;;;;;4180241;28;20048;-42
2022/05/08 11:28:14;;;;;;;1.40;0.30;;;;;;;;;;4180158;28;20045;-40
2022/05/08 11:30:14;;;;;;;0.03;0.00;;;;;;;;;;4179766;28;20057;-41
2022/05/08 11:36:55;;;;;;;0.73;0.10;;;;;;;;;;4180351;28;20122;-40
2022/05/08 11:38:58;;;;;;;1.08;0.45;;;;;;;;;;4179841;28;20052;-41
2022/05/08 11:41:01;;;;;;;0.30;0.20;;;;;;;;;;4180213;28;20049;-41
2022/05/08 11:43:02;;;;;;;0.60;0.10;;;;;;;;;;4180250;28;20044;-41
2022/05/08 11:45:04;;;;;;;0.77;0.10;;;;;;;;;;4178229;28;20049;-39
2022/05/08 11:47:09;;;;;;;1.95;0.10;;;;;;;;;;4179771;28;20463;-38
2022/05/08 11:49:13;;;;;;;0.03;0.03;;;;;;;;;;4179707;28;20053;-42
2022/05/08 11:51:15;;;;;;;0.20;0.10;;;;;;;;;;4180090;28;20049;-40
2022/05/08 11:53:16;;;;;;;0.10;0.10;;;;;;;;;;4179850;28;20467;-41
2022/05/08 11:55:19;;;;;;;0.22;0.10;;;;;;;;;;4179643;28;20137;-41
2022/05/08 11:57:24;;;;;;;0.10;0.10;;;;;;;;;;4179872;28;20493;-41
2022/05/08 11:59:28;;;;;;;0.00;0.00;;;;;;;;;;4179554;28;20053;-41
2022/05/08 12:01:35;;;;;;;0.95;0.10;;;;;;;;;;4179555;28;20504;-41
2022/05/08 12:03:36;;;;;;;0.30;0.10;;;;;;;;;;4179577;28;20130;-41
2022/05/08 12:05:37;;;;;;;0.10;0.10;;;;;;;;;;4179730;28;20084;-40
2022/05/08 12:07:40;;;;;;;0.95;0.15;;;;;;;;;;4179507;28;20053;-40
2022/05/08 12:09:44;;;;;;;0.35;0.10;;;;;;;;;;4179606;28;20055;-38
2022/05/08 12:11:46;;;;;;;0.25;0.10;;;;;;;;;;4179667;28;20107;-40
2022/05/08 12:14:03;;;;;;;0.10;0.10;;;;;;;;;;4179057;28;20041;-39
2022/05/08 12:16:16;;;;;;;0.10;0.10;;;;;;;;;;4179542;28;20404;-42
2022/05/08 12:18:19;;;;;;;0.10;0.10;;;;;;;;;;4179527;28;20056;-41
2022/05/08 12:20:40;;;;;;;0.50;0.28;;;;;;;;;;4179489;28;20052;-40
2022/05/08 12:22:42;;;;;;;0.20;0.10;;;;;;;;;;4179499;28;20049;-41
2022/05/08 12:24:45;;;;;;;1.98;0.20;;;;;;;;;;4179427;28;20090;-41
2022/05/08 12:26:47;;;;;;;0.68;0.10;;;;;;;;;;4179388;28;20466;-39
2022/05/08 12:28:50;;;;;;;0.10;0.10;;;;;;;;;;4179139;28;20056;-40
2022/05/08 12:30:51;;;;;;;0.35;0.20;;;;;;;;;;4178013;28;20041;-41
2022/05/08 12:32:52;;;;;;;0.40;0.10;;;;;;;;;;4179642;28;20044;-41
2022/05/08 12:34:53;;;;;;;2.85;0.20;;;;;;;;;;4179213;28;20049;-41
2022/05/08 12:36:54;;;;;;;0.22;0.17;;;;;;;;;;4179365;28;20044;-40
2022/05/08 12:38:55;;;;;;;0.20;0.10;;;;;;;;;;4177955;28;20504;-42
2022/05/08 12:40:58;;;;;;;0.25;0.10;;;;;;;;;;4179462;28;20053;-42
2022/05/08 12:43:03;;;;;;;0.22;0.10;;;;;;;;;;4179300;28;20049;-41
2022/05/08 12:45:04;;;;;;;0.10;0.00;;;;;;;;;;4178651;28;20098;-43